KROC

Greater Rochester International Airport

Rochester, New York, USA
METAR KROC 140754Z 16004KT 6SM BR CLR 02/00 A3029 RMK AO2 SLP265 T00220000
Observed Flight Rules
Dec-14 @ 07:54 UTC (54 minutes ago) Visual Flight Rules
Wind Visibility Clouds Conditions
160° at 4 knots 6 miles
  • Clear skies
  • Mist
Temperatures Readings
Current 2°C / 36°F
Dewpoint 0°C / 32°F
Humidity 87%
Altimeter 30.29" Hg
Pressure 1026.5 hPa
Elevation 178
METAR KROC 140754Z 16004KT 6SM BR CLR 02/00 A3029 RMK AO2 SLP265 T00220000
Observed Flight Rules
Dec-14 @ 07:54 UTC
(54 minutes ago)
VFR
Wind Visibility
160° at 4 knots 6 miles
Clouds
  • Clear skies
Conditions
  • Mist
Temperature Dewpoint
2°C / 36°F 0°C / 32°F
Humidity Altimeter Pressure
87% 30.29" Hg 1026.5 hPa